createdAt,value
2022-12-29T00:01:47.183Z,10.90
2022-12-29T00:04:51.888Z,12.17
2022-12-29T00:07:54.964Z,11.37
2022-12-29T00:10:57.896Z,10.37
2022-12-29T00:14:22.772Z,10.70
2022-12-29T00:17:30.543Z,10.83
2022-12-29T00:20:53.296Z,10.77
2022-12-29T00:24:14.046Z,10.93
2022-12-29T00:27:34.807Z,10.70
2022-12-29T00:30:56.030Z,11.07
2022-12-29T00:34:18.095Z,10.00
2022-12-29T00:37:41.396Z,11.20
2022-12-29T00:41:01.833Z,10.60
2022-12-29T00:44:07.801Z,11.03
2022-12-29T00:47:10.849Z,10.50
2022-12-29T00:50:14.248Z,10.63
2022-12-29T00:53:17.277Z,10.40
2022-12-29T00:56:20.711Z,11.10
2022-12-29T00:59:25.174Z,10.20
2022-12-29T01:02:28.300Z,10.67
2022-12-29T01:05:32.812Z,10.60
2022-12-29T01:08:36.733Z,9.80
2022-12-29T01:11:39.229Z,10.93
2022-12-29T01:14:42.270Z,10.60
2022-12-29T01:17:45.306Z,10.27
2022-12-29T01:20:50.020Z,10.50
2022-12-29T01:23:53.579Z,9.80
2022-12-29T01:26:56.663Z,11.10
2022-12-29T01:29:59.739Z,9.97
2022-12-29T01:33:03.027Z,11.10
2022-12-29T01:36:09.552Z,10.20
2022-12-29T01:39:12.664Z,10.43
2022-12-29T01:42:19.258Z,10.60
2022-12-29T01:45:22.373Z,10.30
2022-12-29T01:48:25.870Z,9.90
2022-12-29T01:51:33.787Z,9.23
2022-12-29T01:54:42.142Z,10.47
2022-12-29T01:57:51.242Z,10.67
2022-12-29T02:00:54.332Z,9.87
2022-12-29T02:03:57.452Z,9.27
2022-12-29T02:07:06.483Z,9.97
2022-12-29T02:10:10.482Z,10.07
2022-12-29T02:13:13.575Z,10.27
2022-12-29T02:16:33.173Z,9.60
2022-12-29T02:20:07.648Z,9.73
2022-12-29T02:23:33.907Z,9.47
2022-12-29T02:26:50.287Z,9.37
2022-12-29T02:30:08.507Z,9.37
2022-12-29T02:33:24.027Z,8.73
2022-12-29T02:36:37.011Z,9.13
2022-12-29T02:39:44.989Z,8.60
2022-12-29T02:42:52.496Z,9.60
2022-12-29T02:46:00.128Z,9.40
2022-12-29T02:49:12.064Z,8.80
2022-12-29T02:52:20.151Z,8.50
2022-12-29T02:55:23.144Z,8.77
2022-12-29T02:58:26.346Z,8.63
2022-12-29T03:02:06.189Z,8.13
2022-12-29T03:05:44.395Z,8.60
2022-12-29T03:09:00.290Z,8.53
2022-12-29T03:12:16.486Z,8.47
2022-12-29T03:15:42.825Z,8.77
2022-12-29T03:18:52.547Z,8.00
2022-12-29T03:22:17.493Z,8.60
2022-12-29T03:25:27.745Z,8.60
2022-12-29T03:28:38.112Z,7.67
2022-12-29T03:31:42.830Z,7.90
2022-12-29T03:34:46.805Z,8.30
2022-12-29T03:37:54.955Z,8.40
2022-12-29T03:41:02.619Z,8.00
2022-12-29T03:44:07.953Z,8.57
2022-12-29T03:47:13.049Z,7.60
2022-12-29T03:50:16.207Z,7.70
2022-12-29T03:53:21.675Z,8.27
2022-12-29T03:56:26.071Z,8.60
2022-12-29T03:59:29.088Z,8.83
2022-12-29T04:02:32.410Z,8.20
2022-12-29T04:05:35.779Z,8.17
2022-12-29T04:08:38.921Z,8.60
2022-12-29T04:11:43.425Z,8.40
2022-12-29T04:14:46.566Z,8.50
2022-12-29T04:17:49.677Z,7.90
2022-12-29T04:21:05.079Z,7.30
2022-12-29T04:24:08.410Z,8.70
2022-12-29T04:27:12.815Z,8.27
2022-12-29T04:30:15.982Z,8.20
2022-12-29T04:33:21.510Z,9.10
2022-12-29T04:36:29.728Z,7.67
2022-12-29T04:39:35.121Z,8.73
2022-12-29T04:42:39.548Z,9.10
2022-12-29T04:45:45.648Z,9.00
2022-12-29T04:48:48.930Z,8.90
2022-12-29T04:51:51.976Z,9.37
2022-12-29T04:54:54.963Z,9.30
2022-12-29T04:57:59.323Z,9.13
2022-12-29T05:01:02.334Z,9.53
2022-12-29T05:04:05.623Z,10.23
2022-12-29T05:07:08.672Z,14.00
2022-12-29T05:10:12.030Z,11.87
2022-12-29T05:13:16.481Z,13.00
2022-12-29T05:16:21.779Z,12.30
2022-12-29T05:19:24.865Z,12.90
2022-12-29T05:22:28.098Z,13.00
2022-12-29T05:25:31.088Z,12.83
2022-12-29T05:28:35.635Z,13.10
2022-12-29T05:31:38.662Z,13.57
2022-12-29T05:34:41.754Z,13.03
2022-12-29T05:37:44.795Z,13.33
2022-12-29T05:40:47.849Z,13.40
2022-12-29T05:43:52.327Z,12.50
2022-12-29T05:46:55.439Z,11.70
2022-12-29T05:49:58.605Z,12.53
2022-12-29T05:53:01.569Z,12.27
2022-12-29T05:56:04.622Z,11.93
2022-12-29T05:59:08.994Z,12.07
2022-12-29T06:02:12.237Z,11.10
2022-12-29T06:05:15.505Z,11.87
2022-12-29T06:08:18.545Z,11.63
2022-12-29T06:11:21.639Z,11.73
2022-12-29T06:14:26.128Z,10.70
2022-12-29T06:17:29.169Z,11.27
2022-12-29T06:20:32.184Z,10.70
2022-12-29T06:23:35.179Z,10.80
2022-12-29T06:26:38.163Z,10.43
2022-12-29T06:29:43.888Z,11.23
2022-12-29T06:32:47.158Z,10.30
2022-12-29T06:35:50.676Z,10.60
2022-12-29T06:38:54.267Z,10.60
2022-12-29T06:41:57.299Z,10.73
2022-12-29T06:45:02.229Z,10.03
2022-12-29T06:48:05.497Z,10.40
2022-12-29T06:51:08.579Z,9.70
2022-12-29T06:54:11.773Z,9.93
2022-12-29T06:57:14.807Z,10.27
2022-12-29T07:00:23.250Z,10.70
2022-12-29T07:03:26.549Z,10.40
2022-12-29T07:06:31.873Z,9.90
2022-12-29T07:09:34.876Z,10.33
2022-12-29T07:12:39.502Z,9.27
2022-12-29T07:15:44.096Z,9.60
2022-12-29T07:18:47.229Z,10.37
2022-12-29T07:21:50.235Z,10.47
2022-12-29T07:24:53.291Z,9.93
2022-12-29T07:27:56.390Z,9.57
2022-12-29T07:31:01.325Z,9.67
2022-12-29T07:34:04.375Z,9.77
2022-12-29T07:37:07.736Z,10.30
2022-12-29T07:40:11.865Z,10.20
2022-12-29T07:43:15.231Z,9.63
2022-12-29T07:46:56.409Z,9.37
2022-12-29T07:49:42.758Z,9.50
2022-12-29T07:52:45.885Z,9.67
2022-12-29T07:55:48.928Z,9.83
2022-12-29T07:58:52.380Z,9.50
2022-12-29T08:01:57.016Z,9.53
2022-12-29T08:05:00.261Z,10.00
2022-12-29T08:08:03.283Z,10.30
2022-12-29T08:11:06.490Z,10.23
2022-12-29T08:14:09.550Z,9.80
2022-12-29T08:17:14.072Z,9.97
2022-12-29T08:20:17.268Z,9.93
2022-12-29T08:23:20.316Z,10.17
2022-12-29T08:26:23.303Z,9.63
2022-12-29T08:29:27.200Z,9.53
2022-12-29T08:32:31.564Z,9.43
2022-12-29T08:35:34.842Z,10.40
2022-12-29T08:38:37.867Z,10.60
2022-12-29T08:41:40.927Z,9.37
2022-12-29T08:44:43.951Z,10.47
2022-12-29T08:47:48.355Z,10.57
2022-12-29T08:50:51.559Z,9.93
2022-12-29T08:53:54.825Z,10.63
2022-12-29T08:56:57.927Z,11.07
2022-12-29T09:00:00.987Z,9.77
2022-12-29T09:03:05.542Z,10.13
2022-12-29T09:06:09.056Z,9.73
2022-12-29T09:09:12.316Z,10.53
2022-12-29T09:12:15.817Z,9.80
2022-12-29T09:15:18.871Z,10.60
2022-12-29T09:18:23.215Z,10.53
2022-12-29T09:21:26.380Z,10.00
2022-12-29T09:24:29.813Z,10.93
2022-12-29T09:27:32.943Z,10.70
2022-12-29T09:30:35.945Z,10.60
2022-12-29T09:33:40.624Z,9.80
2022-12-29T09:36:43.688Z,10.80
2022-12-29T09:39:53.878Z,10.00
2022-12-29T09:43:13.884Z,9.80
2022-12-29T09:46:25.971Z,9.93
2022-12-29T09:49:33.362Z,9.53
2022-12-29T09:52:42.887Z,9.53
2022-12-29T09:55:50.835Z,9.90
2022-12-29T09:58:57.876Z,9.40
2022-12-29T10:02:14.353Z,8.97
2022-12-29T10:05:30.009Z,8.70
2022-12-29T10:08:39.996Z,9.40
2022-12-29T10:12:04.998Z,8.80
2022-12-29T10:15:31.605Z,9.37
2022-12-29T10:19:04.082Z,9.70
2022-12-29T10:22:23.502Z,9.00
2022-12-29T10:25:32.948Z,8.67
2022-12-29T10:28:40.496Z,9.73
2022-12-29T10:31:46.937Z,8.73
2022-12-29T10:34:54.061Z,8.50
2022-12-29T10:38:04.535Z,9.10
2022-12-29T10:41:15.991Z,8.70
2022-12-29T10:44:20.862Z,9.00
2022-12-29T10:47:28.319Z,8.87
2022-12-29T10:50:31.718Z,8.13
2022-12-29T10:53:42.454Z,8.63
2022-12-29T10:56:48.606Z,8.13
2022-12-29T10:59:51.677Z,8.60
2022-12-29T11:03:31.812Z,8.30
2022-12-29T11:06:35.676Z,9.03
2022-12-29T11:09:43.366Z,8.70
2022-12-29T11:12:58.452Z,8.10
2022-12-29T11:16:02.047Z,8.87
2022-12-29T11:19:05.471Z,7.67
2022-12-29T11:22:16.479Z,8.50
2022-12-29T11:25:21.024Z,7.70
2022-12-29T11:28:27.609Z,8.27
2022-12-29T11:31:30.710Z,7.73
2022-12-29T11:34:35.550Z,8.13
2022-12-29T11:37:41.608Z,6.90
2022-12-29T11:40:46.014Z,7.60
2022-12-29T11:43:50.178Z,7.80
2022-12-29T11:46:55.085Z,7.43
2022-12-29T11:50:01.663Z,7.70
2022-12-29T11:53:12.326Z,7.80
2022-12-29T11:56:20.643Z,7.70
2022-12-29T11:59:37.643Z,7.50
2022-12-29T12:02:50.394Z,7.90
2022-12-29T12:05:59.333Z,7.43
2022-12-29T12:09:08.460Z,7.33
2022-12-29T12:12:25.119Z,7.63
2022-12-29T12:15:41.965Z,7.33
2022-12-29T12:18:51.016Z,7.63
2022-12-29T12:21:58.461Z,7.37
2022-12-29T12:25:08.006Z,7.53
2022-12-29T12:28:19.896Z,7.83
2022-12-29T12:31:36.319Z,7.37
2022-12-29T12:34:44.058Z,7.40
2022-12-29T12:38:05.322Z,7.63
2022-12-29T12:41:16.676Z,7.00
2022-12-29T12:44:31.367Z,7.63
2022-12-29T12:47:56.336Z,7.50
2022-12-29T12:51:13.624Z,7.33
2022-12-29T12:54:34.789Z,7.27
2022-12-29T12:57:50.434Z,7.27
2022-12-29T13:01:09.488Z,7.30
2022-12-29T13:04:50.592Z,6.83
2022-12-29T13:08:09.227Z,7.77
2022-12-29T13:11:24.235Z,6.57
2022-12-29T13:14:37.305Z,8.00
2022-12-29T13:17:47.680Z,7.60
2022-12-29T13:20:58.637Z,7.53
2022-12-29T13:24:07.599Z,7.27
2022-12-29T13:27:18.514Z,7.10
2022-12-29T13:30:23.327Z,6.53
2022-12-29T13:33:37.082Z,7.83
2022-12-29T13:36:45.364Z,7.20
2022-12-29T13:39:53.397Z,7.67
2022-12-29T13:42:57.822Z,7.70
2022-12-29T13:46:09.080Z,7.23
2022-12-29T13:49:17.597Z,7.03
2022-12-29T13:52:26.790Z,7.07
2022-12-29T13:55:35.343Z,6.73
2022-12-29T13:58:48.173Z,6.93
2022-12-29T14:01:58.765Z,6.93
2022-12-29T14:05:05.727Z,7.33
2022-12-29T14:08:18.313Z,6.63
2022-12-29T14:11:25.737Z,6.90
2022-12-29T14:14:32.741Z,7.50
2022-12-29T14:17:35.878Z,7.30
2022-12-29T14:20:41.892Z,6.87
2022-12-29T14:23:46.921Z,7.57
2022-12-29T14:26:50.006Z,6.90
2022-12-29T14:29:53.908Z,6.90
2022-12-29T14:33:04.296Z,6.70
2022-12-29T14:36:23.891Z,6.87
2022-12-29T14:39:33.743Z,6.93
2022-12-29T14:42:36.961Z,6.57
2022-12-29T14:45:44.201Z,6.70
2022-12-29T14:48:47.385Z,7.10
2022-12-29T14:51:54.695Z,7.17
2022-12-29T14:55:01.587Z,7.17
2022-12-29T14:58:13.591Z,7.00
2022-12-29T15:01:37.543Z,6.73
2022-12-29T15:04:41.879Z,6.37
2022-12-29T15:07:46.441Z,6.50
2022-12-29T15:10:55.618Z,7.70
2022-12-29T15:13:58.770Z,8.00
2022-12-29T15:17:01.985Z,7.30
2022-12-29T15:20:23.816Z,8.10
2022-12-29T15:23:29.515Z,7.60
2022-12-29T15:26:41.190Z,8.37
2022-12-29T15:29:46.696Z,8.47
2022-12-29T15:32:51.454Z,8.93
2022-12-29T15:35:56.598Z,9.70
2022-12-29T15:39:01.055Z,11.27
2022-12-29T15:42:11.807Z,11.30
2022-12-29T15:45:16.561Z,11.47
2022-12-29T15:48:23.841Z,11.50
2022-12-29T15:51:32.283Z,16.10
2022-12-29T15:54:37.287Z,16.10
2022-12-29T15:57:45.046Z,16.10
2022-12-29T16:00:50.375Z,14.80
2022-12-29T16:03:54.381Z,16.37
2022-12-29T16:07:00.935Z,15.37
2022-12-29T16:10:06.214Z,14.50
2022-12-29T16:13:21.210Z,15.67
2022-12-29T16:16:29.894Z,14.73
2022-12-29T16:19:37.893Z,14.87
2022-12-29T16:22:44.894Z,15.77
2022-12-29T16:25:49.604Z,16.37
2022-12-29T16:28:56.223Z,15.00
2022-12-29T16:32:04.043Z,14.37
2022-12-29T16:35:19.118Z,15.00
2022-12-29T16:38:23.734Z,16.17
2022-12-29T16:41:33.248Z,15.27
2022-12-29T16:44:36.300Z,14.60
2022-12-29T16:47:39.330Z,16.20
2022-12-29T16:50:44.909Z,16.03
2022-12-29T16:53:53.108Z,15.60
2022-12-29T16:56:58.275Z,15.97
2022-12-29T17:00:03.727Z,16.07
2022-12-29T17:03:08.131Z,15.13
2022-12-29T17:06:16.222Z,16.17
2022-12-29T17:09:21.574Z,15.30
2022-12-29T17:12:28.364Z,15.93
2022-12-29T17:15:35.256Z,15.80
2022-12-29T17:18:38.792Z,15.43
2022-12-29T17:21:42.076Z,15.30
2022-12-29T17:24:45.194Z,14.20
2022-12-29T17:27:53.970Z,14.63
2022-12-29T17:31:02.054Z,16.27
2022-12-29T17:34:05.100Z,14.87
2022-12-29T17:37:28.181Z,16.53
2022-12-29T17:40:33.602Z,19.70
2022-12-29T17:43:38.107Z,19.27
2022-12-29T17:46:41.205Z,20.60
2022-12-29T17:49:46.199Z,21.50
2022-12-29T17:52:53.141Z,21.77
2022-12-29T17:55:56.595Z,22.07
2022-12-29T17:59:01.012Z,23.23
2022-12-29T18:02:04.190Z,24.07
2022-12-29T18:05:14.704Z,24.20
2022-12-29T18:08:17.787Z,24.23
2022-12-29T18:11:24.293Z,25.70
2022-12-29T18:14:28.803Z,26.10
2022-12-29T18:17:31.882Z,26.70
2022-12-29T18:20:35.035Z,28.30
2022-12-29T18:23:40.109Z,29.03
2022-12-29T18:26:43.344Z,30.40
2022-12-29T18:29:48.166Z,31.83
2022-12-29T18:32:51.151Z,32.27
2022-12-29T18:35:57.553Z,33.97
2022-12-29T18:39:00.624Z,32.50
2022-12-29T18:42:03.759Z,32.30
2022-12-29T18:45:17.140Z,32.70
2022-12-29T18:48:21.754Z,31.33
2022-12-29T18:51:26.274Z,30.93
2022-12-29T18:54:31.723Z,31.73
2022-12-29T18:57:34.817Z,30.30
2022-12-29T19:00:40.056Z,29.80
2022-12-29T19:03:43.159Z,28.73
2022-12-29T19:06:46.178Z,26.97
2022-12-29T19:09:49.135Z,28.87
2022-12-29T19:12:53.189Z,25.97
2022-12-29T19:15:58.549Z,27.13
2022-12-29T19:19:10.055Z,26.63
2022-12-29T19:22:13.177Z,25.10
2022-12-29T19:25:16.266Z,24.87
2022-12-29T19:28:21.289Z,26.70
2022-12-29T19:31:26.664Z,27.40
2022-12-29T19:34:29.739Z,26.27
2022-12-29T19:37:36.354Z,25.80
2022-12-29T19:40:42.629Z,26.23
2022-12-29T19:43:45.743Z,26.27
2022-12-29T19:46:50.166Z,26.07
2022-12-29T19:49:53.386Z,24.73
2022-12-29T19:53:04.858Z,23.77
2022-12-29T19:56:09.965Z,22.23
2022-12-29T19:59:13.303Z,24.10
2022-12-29T20:02:22.213Z,24.20
2022-12-29T20:05:25.720Z,23.87
2022-12-29T20:08:28.773Z,24.27
2022-12-29T20:11:31.831Z,22.43
2022-12-29T20:14:35.111Z,23.00
2022-12-29T20:18:11.537Z,23.17
2022-12-29T20:21:04.075Z,22.60
2022-12-29T20:24:08.304Z,22.77
2022-12-29T20:27:14.495Z,22.53
2022-12-29T20:30:18.010Z,22.53
2022-12-29T20:33:22.953Z,21.47
2022-12-29T20:36:28.563Z,21.83
2022-12-29T20:39:32.557Z,21.90
2022-12-29T20:42:35.902Z,20.80
2022-12-29T20:45:39.065Z,20.27
2022-12-29T20:48:43.666Z,20.37
2022-12-29T20:55:10.775Z,19.47
2022-12-29T20:58:23.683Z,19.23
2022-12-29T21:01:27.546Z,19.07
2022-12-29T21:04:57.721Z,39.90
2022-12-29T21:07:55.692Z,25.10
2022-12-29T21:10:59.645Z,23.03
2022-12-29T21:14:02.904Z,22.97
2022-12-29T21:17:06.056Z,23.10
2022-12-29T21:20:20.017Z,24.40
2022-12-29T21:23:23.476Z,23.23
2022-12-29T21:26:26.524Z,24.50
2022-12-29T21:29:29.622Z,22.40
2022-12-29T21:32:32.672Z,25.13
2022-12-29T21:35:38.593Z,23.43
2022-12-29T21:38:43.359Z,25.47
2022-12-29T21:41:47.641Z,24.43
2022-12-29T21:45:08.185Z,25.73
2022-12-29T21:48:24.059Z,24.70
2022-12-29T21:51:46.284Z,25.10
2022-12-29T21:55:01.406Z,24.97
2022-12-29T21:58:21.831Z,25.10
2022-12-29T22:01:43.890Z,24.10
2022-12-29T22:05:04.685Z,23.70
2022-12-29T22:08:26.626Z,24.50
2022-12-29T22:11:47.147Z,25.00
2022-12-29T22:14:50.165Z,25.90
2022-12-29T22:17:55.230Z,24.70
2022-12-29T22:20:58.305Z,25.37
2022-12-29T22:24:02.772Z,26.70
2022-12-29T22:27:05.856Z,26.97
2022-12-29T22:30:09.965Z,26.77
2022-12-29T22:33:13.123Z,25.90
2022-12-29T22:36:16.195Z,26.43
2022-12-29T22:39:20.589Z,26.50
2022-12-29T22:42:24.197Z,25.67
2022-12-29T22:45:27.266Z,25.40
2022-12-29T22:48:32.771Z,24.77
2022-12-29T22:51:36.012Z,24.43
2022-12-29T22:54:40.478Z,25.80
2022-12-29T22:57:43.596Z,25.60
2022-12-29T23:00:46.913Z,25.10
2022-12-29T23:03:50.552Z,24.00
2022-12-29T23:06:53.813Z,25.23
2022-12-29T23:09:58.285Z,25.80
2022-12-29T23:13:01.275Z,27.07
2022-12-29T23:16:04.371Z,25.00
2022-12-29T23:19:07.467Z,26.10
2022-12-29T23:22:10.618Z,25.67
2022-12-29T23:25:15.176Z,26.47
2022-12-29T23:28:18.459Z,27.50
2022-12-29T23:31:22.870Z,27.60
2022-12-29T23:34:26.103Z,28.63
2022-12-29T23:37:29.124Z,26.60
2022-12-29T23:40:34.414Z,26.77
2022-12-29T23:43:38.297Z,30.13
2022-12-29T23:46:42.064Z,29.03
2022-12-29T23:49:45.150Z,30.27
2022-12-29T23:52:48.195Z,29.90
2022-12-29T23:55:54.739Z,28.00
2022-12-29T23:58:57.915Z,29.20
